Saint Augustine Beach, FL

2:20 PM EDT on September 28, 2016 (GMT -0400)
Salt Run | | Change Station

Elev 35 ft 29.89 °N, 81.30 °W | Updated 7 seconds ago

Mostly Cloudy
Mostly Cloudy
89.2 °F
Feels Like 97 °F
N
4.0
Wind Variable Wind from WSW
Gusts 7.0 mph

Today
High -- | Low -- °F
--% Chance of Precip.
Yesterday
High -- | Low -- °F
Precip. -- in
Pressure 29.97 in
Visibility 10.0 miles
Clouds Mostly Cloudy 4000 ft
Heat Index 97 °F
Dew Point 72 °F
Humidity 58%
Rainfall 0.00 in
Snow Depth Not available.
7:17 AM 7:13 PM
Waning Crescent, 5% visible
METAR KSGJ 281758Z 29005KT 10SM BKN040 31/22 A2997 RMK AO2 SLP148 T03110217 10322 20233 58015
Pressure 29.97 in
Visibility 10.0 miles
Clouds Mostly Cloudy 4000 ft
Heat Index 97 °F
Dew Point 72 °F
Humidity 58%
Rainfall 0.00 in
Snow Depth Not available.
7:17 AM 7:13 PM
Waning Crescent, 5% visible
METAR KSGJ 281758Z 29005KT 10SM BKN040 31/22 A2997 RMK AO2 SLP148 T03110217 10322 20233 58015

10-Day Weather Forecast

Almanac

Astronomy

Sep. 28, 2016 Rise Set
Actual Time
Civil Twilight
Nautical Twilight
Astronomical Twilight
Moon
Length of Visible Light
Length of Day
Tomorrow will be .
, % of the Moon is Illuminated

Today's Extremes

State Highs State Lows

Community

WunderPhotos

Upload Photos

1,942,294 photos uploaded!

WunderBlog® & News

Nearby

Air Quality

  Air Quality AQ Index Pollutant
Not available.

Snow Depth

Station Depth Elevation

Earthquake Activity

City Distance Mag. Time & Date
Minimum magnitude displayed is 2.5.

Coastal Water Temperatures

Place Temperature

Stations

Nearby Weather Stations

Station Location Temp. Windchill Dew Point Humidity Wind Precip. Elev Updated Type
                   

Watches & Warnings

There are currently no watches in effect.